(°C)
13°
13°
12°
13°
15°
17°
19°
(°C)
10°
12°
14°
ЮИ
ЮИ
ЮИ
ЮИ
ЮИ
ЮИ
ЮИ
(km/h)
18-29
17-28
18-28
18-34
19-37
21-35
23-42
(mm)
0
0
0
0
0
0
0
(%)
0
0
0
0
0
0
0

Издигане на слънцето

/ -18.7°
sun-icon
UV 6
04:44
20:20
Нарастващ полумесец (8°)
05:12
21:10

METAR за 52.17°С 20.97°И (EPWA)

Час Условия Температура/
Точка на оросяване
Вятър Видимост Времето Облаци Налягане Промяна Сурови
VFR 16°C / 4°C 120º 9kt >10km - Clouds and Visibility OK 1010 No Significant change EPWA 112300Z 12009KT CAVOK 16/04 Q1010 NOSIG
VFR 17°C / 4°C 120º 10kt >10km - Clouds and Visibility OK 1010 No Significant change EPWA 112230Z 12010KT CAVOK 17/04 Q1010 NOSIG
VFR 18°C / 5°C 120º 11kt >10km - Clouds and Visibility OK 1011 No Significant change EPWA 112200Z 12011KT CAVOK 18/05 Q1011 NOSIG
VFR 19°C / 5°C 120º 12kt >10km - Clouds and Visibility OK 1011 No Significant change EPWA 112130Z 12012KT CAVOK 19/05 Q1011 NOSIG
VFR 19°C / 5°C 120º 13kt >10km - Clouds and Visibility OK 1011 No Significant change EPWA 112100Z 12013KT CAVOK 19/05 Q1011 NOSIG
VFR 20°C / 6°C 120º 15kt >10km - Clouds and Visibility OK 1011 No Significant change EPWA 112030Z 12015KT CAVOK 20/06 Q1011 NOSIG
VFR 20°C / 7°C 120º 14kt >10km - Clouds and Visibility OK 1011 No Significant change EPWA 112000Z 12014KT CAVOK 20/07 Q1011 NOSIG
VFR 20°C / 8°C 120º 14kt >10km - Clouds and Visibility OK 1011 No Significant change EPWA 111930Z 12014KT CAVOK 20/08 Q1011 NOSIG
VFR 21°C / 8°C 120º 13kt >10km - Clouds and Visibility OK 1011 No Significant change EPWA 111900Z 12013KT CAVOK 21/08 Q1011 NOSIG
VFR 21°C / 8°C 110º 11kt >10km - Clouds and Visibility OK 1011 No Significant change EPWA 111830Z 11011KT CAVOK 21/08 Q1011 NOSIG
VFR 23°C / 8°C 120º 16kt >10km - Clouds and Visibility OK 1011 No Significant change EPWA 111800Z 12016KT CAVOK 23/08 Q1011 NOSIG
VFR 24°C / 8°C 110º 15kt >10km - Clouds and Visibility OK 1010 No Significant change EPWA 111730Z 11015KT CAVOK 24/08 Q1010 NOSIG
VFR 24°C / 8°C 120º 15kt >10km - Clouds and Visibility OK 1011 No Significant change EPWA 111700Z 12015KT CAVOK 24/08 Q1011 NOSIG
VFR 25°C / 9°C 120º 19kt >10km - Clouds and Visibility OK 1011 No Significant change EPWA 111630Z 12019KT CAVOK 25/09 Q1011 NOSIG
VFR 25°C / 10°C 120º 17kt >10km - Clouds and Visibility OK 1011 No Significant change EPWA 111600Z 12017KT CAVOK 25/10 Q1011 NOSIG
VFR 26°C / 9°C 120º 20kt >10km - Clouds and Visibility OK 1011 No Significant change EPWA 111530Z 12020KT CAVOK 26/09 Q1011 NOSIG
VFR 26°C / 10°C 120º 16kt >10km - Clouds and Visibility OK 1011 No Significant change EPWA 111500Z 12016KT CAVOK 26/10 Q1011 NOSIG
VFR 26°C / 10°C 130º 14kt >10km - Clouds and Visibility OK 1011 No Significant change EPWA 111430Z 13014KT CAVOK 26/10 Q1011 NOSIG
VFR 27°C / 10°C 120º 17kt >10km - Clouds and Visibility OK 1011 No Significant change EPWA 111400Z 12017KT CAVOK 27/10 Q1011 NOSIG
VFR 27°C / 11°C 130º 17kt >10km - Clouds and Visibility OK 1012 No Significant change EPWA 111330Z 13017KT CAVOK 27/11 Q1012 NOSIG
VFR 26°C / 10°C 140º 19kt >10km - Clouds and Visibility OK 1012 No Significant change EPWA 111300Z 14019KT CAVOK 26/10 Q1012 NOSIG
VFR 26°C / 11°C 140º 19kt >10km - Clouds and Visibility OK 1012 No Significant change EPWA 111230Z 14019KT CAVOK 26/11 Q1012 NOSIG
VFR 26°C / 10°C 140º variable 100º to 160º 20kt >10km - Clouds and Visibility OK 1012 No Significant change EPWA 111200Z 14020KT 100V160 CAVOK 26/10 Q1012 NOSIG
VFR 26°C / 11°C 130º 15kt >10km - Clouds and Visibility OK 1012 No Significant change EPWA 111130Z 13015KT CAVOK 26/11 Q1012 NOSIG

VFR

16°C / 4°C

[Още]
Вятър 120º 9kt
Видимост >10km
Времето -
Облаци Clouds and Visibility OK
Налягане 1010
Промяна No Significant change
Сурови EPWA 112300Z 12009KT CAVOK 16/04 Q1010 NOSIG

VFR

17°C / 4°C

[Още]
Вятър 120º 10kt
Видимост >10km
Времето -
Облаци Clouds and Visibility OK
Налягане 1010
Промяна No Significant change
Сурови EPWA 112230Z 12010KT CAVOK 17/04 Q1010 NOSIG

VFR

18°C / 5°C

[Още]
Вятър 120º 11kt
Видимост >10km
Времето -
Облаци Clouds and Visibility OK
Налягане 1011
Промяна No Significant change
Сурови EPWA 112200Z 12011KT CAVOK 18/05 Q1011 NOSIG

VFR

19°C / 5°C

[Още]
Вятър 120º 12kt
Видимост >10km
Времето -
Облаци Clouds and Visibility OK
Налягане 1011
Промяна No Significant change
Сурови EPWA 112130Z 12012KT CAVOK 19/05 Q1011 NOSIG

VFR

19°C / 5°C

[Още]
Вятър 120º 13kt
Видимост >10km
Времето -
Облаци Clouds and Visibility OK
Налягане 1011
Промяна No Significant change
Сурови EPWA 112100Z 12013KT CAVOK 19/05 Q1011 NOSIG

VFR

20°C / 6°C

[Още]
Вятър 120º 15kt
Видимост >10km
Времето -
Облаци Clouds and Visibility OK
Налягане 1011
Промяна No Significant change
Сурови EPWA 112030Z 12015KT CAVOK 20/06 Q1011 NOSIG

VFR

20°C / 7°C

[Още]
Вятър 120º 14kt
Видимост >10km
Времето -
Облаци Clouds and Visibility OK
Налягане 1011
Промяна No Significant change
Сурови EPWA 112000Z 12014KT CAVOK 20/07 Q1011 NOSIG

VFR

20°C / 8°C

[Още]
Вятър 120º 14kt
Видимост >10km
Времето -
Облаци Clouds and Visibility OK
Налягане 1011
Промяна No Significant change
Сурови EPWA 111930Z 12014KT CAVOK 20/08 Q1011 NOSIG

VFR

21°C / 8°C

[Още]
Вятър 120º 13kt
Видимост >10km
Времето -
Облаци Clouds and Visibility OK
Налягане 1011
Промяна No Significant change
Сурови EPWA 111900Z 12013KT CAVOK 21/08 Q1011 NOSIG

VFR

21°C / 8°C

[Още]
Вятър 110º 11kt
Видимост >10km
Времето -
Облаци Clouds and Visibility OK
Налягане 1011
Промяна No Significant change
Сурови EPWA 111830Z 11011KT CAVOK 21/08 Q1011 NOSIG

VFR

23°C / 8°C

[Още]
Вятър 120º 16kt
Видимост >10km
Времето -
Облаци Clouds and Visibility OK
Налягане 1011
Промяна No Significant change
Сурови EPWA 111800Z 12016KT CAVOK 23/08 Q1011 NOSIG

VFR

24°C / 8°C

[Още]
Вятър 110º 15kt
Видимост >10km
Времето -
Облаци Clouds and Visibility OK
Налягане 1010
Промяна No Significant change
Сурови EPWA 111730Z 11015KT CAVOK 24/08 Q1010 NOSIG

VFR

24°C / 8°C

[Още]
Вятър 120º 15kt
Видимост >10km
Времето -
Облаци Clouds and Visibility OK
Налягане 1011
Промяна No Significant change
Сурови EPWA 111700Z 12015KT CAVOK 24/08 Q1011 NOSIG

VFR

25°C / 9°C

[Още]
Вятър 120º 19kt
Видимост >10km
Времето -
Облаци Clouds and Visibility OK
Налягане 1011
Промяна No Significant change
Сурови EPWA 111630Z 12019KT CAVOK 25/09 Q1011 NOSIG

VFR

25°C / 10°C

[Още]
Вятър 120º 17kt
Видимост >10km
Времето -
Облаци Clouds and Visibility OK
Налягане 1011
Промяна No Significant change
Сурови EPWA 111600Z 12017KT CAVOK 25/10 Q1011 NOSIG

VFR

26°C / 9°C

[Още]
Вятър 120º 20kt
Видимост >10km
Времето -
Облаци Clouds and Visibility OK
Налягане 1011
Промяна No Significant change
Сурови EPWA 111530Z 12020KT CAVOK 26/09 Q1011 NOSIG

VFR

26°C / 10°C

[Още]
Вятър 120º 16kt
Видимост >10km
Времето -
Облаци Clouds and Visibility OK
Налягане 1011
Промяна No Significant change
Сурови EPWA 111500Z 12016KT CAVOK 26/10 Q1011 NOSIG

VFR

26°C / 10°C

[Още]
Вятър 130º 14kt
Видимост >10km
Времето -
Облаци Clouds and Visibility OK
Налягане 1011
Промяна No Significant change
Сурови EPWA 111430Z 13014KT CAVOK 26/10 Q1011 NOSIG

VFR

27°C / 10°C

[Още]
Вятър 120º 17kt
Видимост >10km
Времето -
Облаци Clouds and Visibility OK
Налягане 1011
Промяна No Significant change
Сурови EPWA 111400Z 12017KT CAVOK 27/10 Q1011 NOSIG

VFR

27°C / 11°C

[Още]
Вятър 130º 17kt
Видимост >10km
Времето -
Облаци Clouds and Visibility OK
Налягане 1012
Промяна No Significant change
Сурови EPWA 111330Z 13017KT CAVOK 27/11 Q1012 NOSIG

VFR

26°C / 10°C

[Още]
Вятър 140º 19kt
Видимост >10km
Времето -
Облаци Clouds and Visibility OK
Налягане 1012
Промяна No Significant change
Сурови EPWA 111300Z 14019KT CAVOK 26/10 Q1012 NOSIG

VFR

26°C / 11°C

[Още]
Вятър 140º 19kt
Видимост >10km
Времето -
Облаци Clouds and Visibility OK
Налягане 1012
Промяна No Significant change
Сурови EPWA 111230Z 14019KT CAVOK 26/11 Q1012 NOSIG

VFR

26°C / 10°C

[Още]
Вятър 140º variable 100º to 160º 20kt
Видимост >10km
Времето -
Облаци Clouds and Visibility OK
Налягане 1012
Промяна No Significant change
Сурови EPWA 111200Z 14020KT 100V160 CAVOK 26/10 Q1012 NOSIG

VFR

26°C / 11°C

[Още]
Вятър 130º 15kt
Видимост >10km
Времето -
Облаци Clouds and Visibility OK
Налягане 1012
Промяна No Significant change
Сурови EPWA 111130Z 13015KT CAVOK 26/11 Q1012 NOSIG

TAF за 52.17°С 20.97°И (EPWA)

From till


From till Wind 120º 11kt. Visibility 10km or more. Nil Significant Cloud.
Temporarly from till Wind 100º 20kt. Gust 30kt.

Сурови: TAF EPWA 112030Z 1121/1221 12011KT CAVOK TEMPO 1208/1220 10020G30KT

Актуални сателитни и дъждовни снимки за 52.17°С 20.97°И

  • Валежи:
  • <1 mm
  • 1-2 mm
  • 2-5 mm
  • >5 mm

Маркерът за локация е поставен върху 52.17°С 20.97°И. [Още]

Сателитното изображение в реално време съчетава видимата светлина през деня с инфрачервеното лъчение през нощта. През нощта изображението не е тъмно, тъй като инфрачервеното лъчение може да открива температурни разлики. За съжаление ниските облаци и мъглата са трудни за разграничаване от температурите на земята и затова могат да бъдат почти невидими през нощта. Сателитните изображения на Meteosat за Европа се актуализират в реално време на всеки 5 минути. Изображенията GOES-16/GOES-17 (Северна и Южна Америка) и Химавари (Азия) се актуализират на всеки 10 минути.

Валежите се изчисляват на база информация от радари и сателити. Нощните прогнози за валежи от сателити са с по-ниска прецизност от дневните прогнози. Оранжевите кръстове маркират локациите, на които са засечени светкавици (над Европа).

Всички права запазени 2021 EUMETSAT / meteoblue. Данни за светкавици, предоставени от nowcast.